Time,TemperatureF,DewpointF,PressureIn,WindDirection,WindDirectionDegrees,WindSpeedMPH,WindSpeedGustMPH,Humidity,HourlyPrecipIn,Conditions,Clouds,dailyrainin,SoftwareType,DateUTC
2013-07-19 00:01:00,58.0,-99.9,-100.00,NNW,340,0.0,-999.0,64,-99.99,,,-99.99,,2013-07-19 07:01:00,
2013-07-19 00:12:00,58.0,46.0,-100.00,North,-999,-999.0,-999.0,64,-99.99,,,-99.99,,2013-07-19 07:12:00,
2013-07-19 00:22:00,58.0,46.0,-100.00,North,-999,-999.0,-999.0,64,-99.99,,,-99.99,,2013-07-19 07:22:00,
2013-07-19 00:43:00,56.0,47.0,-100.00,North,-999,-999.0,-999.0,72,-99.99,,,-99.99,,2013-07-19 07:43:00,
2013-07-19 00:53:00,56.0,47.0,-100.00,North,-999,-999.0,-999.0,72,-99.99,,,-99.99,,2013-07-19 07:53:00,
2013-07-19 01:01:00,56.0,46.0,-100.00,North,-999,-999.0,-999.0,67,-99.99,,,-99.99,,2013-07-19 08:01:00,
2013-07-19 01:11:00,56.0,46.0,-100.00,North,-999,-999.0,-999.0,67,-99.99,,,-99.99,,2013-07-19 08:11:00,
2013-07-19 01:21:00,56.0,46.0,-100.00,North,-999,-999.0,-999.0,67,-99.99,,,-99.99,,2013-07-19 08:21:00,
2013-07-19 01:32:00,56.0,46.0,-100.00,North,-999,-999.0,-999.0,67,-99.99,,,-99.99,,2013-07-19 08:32:00,
2013-07-19 01:52:00,54.0,-99.9,-100.00,North,-999,-999.0,-999.0,-999,-99.99,,,-99.99,,2013-07-19 08:52:00,
2013-07-19 02:11:00,54.0,45.0,-100.00,North,-999,-999.0,-999.0,72,-99.99,,,-99.99,,2013-07-19 09:11:00,
2013-07-19 02:22:00,54.0,49.0,-100.00,North,-999,-999.0,-999.0,83,-99.99,,,-99.99,,2013-07-19 09:22:00,
2013-07-19 02:32:00,54.0,49.0,-100.00,North,-999,-999.0,-999.0,83,-99.99,,,-99.99,,2013-07-19 09:32:00,
2013-07-19 03:11:00,52.0,-99.9,-100.00,North,-999,-999.0,-999.0,-999,-99.99,,,-99.99,,2013-07-19 10:11:00,
2013-07-19 03:22:00,52.0,-99.9,-100.00,North,-999,-999.0,-999.0,75,-99.99,,,-99.99,,2013-07-19 10:22:00,
2013-07-19 03:33:00,52.0,-99.9,-100.00,North,-999,-999.0,-999.0,75,-99.99,,,-99.99,,2013-07-19 10:33:00,
2013-07-19 04:12:00,51.0,45.0,-100.00,North,-999,-999.0,-999.0,80,-99.99,,,-99.99,,2013-07-19 11:12:00,
2013-07-19 04:22:00,50.0,46.0,-100.00,North,-999,-999.0,-999.0,85,-99.99,,,-99.99,,2013-07-19 11:22:00,
2013-07-19 04:33:00,50.0,46.0,-100.00,North,-999,-999.0,-999.0,85,-99.99,,,-99.99,,2013-07-19 11:33:00,
2013-07-19 04:43:00,50.0,47.0,-100.00,North,-999,-999.0,-999.0,88,-99.99,,,-99.99,,2013-07-19 11:43:00,
2013-07-19 05:01:00,50.0,47.0,-100.00,North,-999,-999.0,-999.0,88,-99.99,,,-99.99,,2013-07-19 12:01:00,
2013-07-19 05:12:00,50.0,46.0,-100.00,North,-999,-999.0,-999.0,86,-99.99,,,-99.99,,2013-07-19 12:12:00,
2013-07-19 05:22:00,50.0,46.0,-100.00,North,-999,-999.0,-999.0,86,-99.99,,,-99.99,,2013-07-19 12:22:00,
2013-07-19 05:32:00,50.0,46.0,-100.00,North,-999,-999.0,-999.0,86,-99.99,,,-99.99,,2013-07-19 12:32:00,
2013-07-19 05:43:00,50.0,46.0,-100.00,North,-999,-999.0,-999.0,85,-99.99,,,-99.99,,2013-07-19 12:43:00,
2013-07-19 05:52:00,50.0,46.0,-100.00,North,-999,-999.0,-999.0,85,-99.99,,,-99.99,,2013-07-19 12:52:00,
2013-07-19 06:02:00,50.0,-99.9,-100.00,North,-999,-999.0,-999.0,-999,-99.99,,,-99.99,,2013-07-19 13:02:00,
2013-07-19 06:12:00,50.0,-99.9,-100.00,North,-999,-999.0,-999.0,-999,-99.99,,,-99.99,,2013-07-19 13:12:00,
2013-07-19 06:22:00,50.0,-99.9,-100.00,North,-999,-999.0,-999.0,-999,-99.99,,,-99.99,,2013-07-19 13:22:00,
2013-07-19 07:02:00,49.0,47.0,-100.00,North,-999,-999.0,-999.0,93,-99.99,,,-99.99,,2013-07-19 14:02:00,
2013-07-19 07:22:00,50.0,48.0,-100.00,North,-999,-999.0,-999.0,93,-99.99,,,-99.99,,2013-07-19 14:22:00,
2013-07-19 07:52:00,51.0,50.0,-100.00,North,-999,-999.0,-999.0,96,-99.99,,,-99.99,,2013-07-19 14:52:00,
2013-07-19 12:52:00,77.0,-99.9,-100.00,WNW,300,1.0,-999.0,66,-99.99,,,-99.99,,2013-07-19 19:52:00,
2013-07-19 14:11:00,-999.0,-99.9,-100.00,WSW,240,1.0,-999.0,-999,-99.99,,,-99.99,,2013-07-19 21:11:00,
2013-07-19 16:43:00,89.0,-99.9,-100.00,West,270,1.0,-999.0,-999,-99.99,,,-99.99,,2013-07-19 23:43:00,
2013-07-19 19:33:00,-999.0,-99.9,-100.00,NW,320,0.0,-999.0,-999,-99.99,,,-99.99,,2013-07-20 02:33:00,
2013-07-19 19:44:00,80.0,-99.9,-100.00,North,-999,-999.0,-999.0,55,-99.99,,,-99.99,,2013-07-20 02:44:00,
2013-07-19 23:43:00,62.0,45.0,-100.00,North,-999,-999.0,-999.0,54,-99.99,,,-99.99,,2013-07-20 06:43:00,
2013-07-19 23:52:00,62.0,46.0,-100.00,North,-999,-999.0,-999.0,55,-99.99,,,-99.99,,2013-07-20 06:52:00,